Terminal Aerodrome Forecast
Issued by NWS Melbourne, FL

Home | Current Version | Previous Version | Text Only | Print | Product List | Glossary On
Versions: 1 2 3 4 5 6 7 8 9 10 11 12 13 14 15 16 17 18 19 20 21 22 23 24 25 26 27 28
468
FTUS42 KMLB 220547
TAFMCO
TAF
KMCO 220547Z 2206/2306 12006KT P6SM SCT060 BKN250
     FM221600 14010KT P6SM VCSH BKN025 OVC050
      TEMPO 2217/2221 3SM SHRA OVC010
     FM222100 10006KT 5SM -RA BR OVC015
      TEMPO 2221/2301 2SM SHRA OVC008
     FM230100 07006KT P6SM SCT020 OVC050
      TEMPO 2301/2304 5SM SHRA BKN020 OVC040
     FM230500 04007KT P6SM OVC025=

USA.gov is the U.S. government's official web portal to all federal, state and local government web resources and services.